createdAt,value
2023-04-15T00:01:37.330Z,83.89
2023-04-15T00:04:04.821Z,83.67
2023-04-15T00:06:31.936Z,83.90
2023-04-15T00:08:59.013Z,84.00
2023-04-15T00:11:26.094Z,83.14
2023-04-15T00:13:53.174Z,81.76
2023-04-15T00:16:21.485Z,83.20
2023-04-15T00:18:48.340Z,84.12
2023-04-15T00:21:15.270Z,84.26
2023-04-15T00:23:42.056Z,84.79
2023-04-15T00:26:08.960Z,85.39
2023-04-15T00:28:35.833Z,85.11
2023-04-15T00:31:03.651Z,85.43
2023-04-15T00:33:30.523Z,86.59
2023-04-15T00:35:57.758Z,86.54
2023-04-15T00:38:28.258Z,87.07
2023-04-15T00:40:56.530Z,87.09
2023-04-15T00:43:23.524Z,86.63
2023-04-15T00:45:52.336Z,85.58
2023-04-15T00:48:19.214Z,85.22
2023-04-15T00:50:46.170Z,87.08
2023-04-15T00:53:12.968Z,85.47
2023-04-15T00:55:40.173Z,86.25
2023-04-15T00:58:07.235Z,85.05
2023-04-15T01:00:36.020Z,85.39
2023-04-15T01:03:03.324Z,86.16
2023-04-15T01:05:31.340Z,86.21
2023-04-15T01:07:58.345Z,86.34
2023-04-15T01:10:25.197Z,86.29
2023-04-15T01:12:52.531Z,85.94
2023-04-15T01:15:19.466Z,87.58
2023-04-15T01:17:46.430Z,86.99
2023-04-15T01:20:13.453Z,87.29
2023-04-15T01:22:40.754Z,84.78
2023-04-15T01:25:13.482Z,86.20
2023-04-15T01:27:42.304Z,86.62
2023-04-15T01:30:10.619Z,86.18
2023-04-15T01:32:38.080Z,85.72
2023-04-15T01:35:05.173Z,85.57
2023-04-15T01:37:32.568Z,85.72
2023-04-15T01:39:59.873Z,86.03
2023-04-15T01:42:27.824Z,85.18
2023-04-15T01:44:54.923Z,86.48
2023-04-15T01:47:21.871Z,85.46
2023-04-15T01:49:48.816Z,84.94
2023-04-15T01:52:15.821Z,84.86
2023-04-15T01:54:42.661Z,84.70
2023-04-15T01:57:10.020Z,85.77
2023-04-15T01:59:37.346Z,86.44
2023-04-15T02:02:04.752Z,84.89
2023-04-15T02:04:31.846Z,86.61
2023-04-15T02:07:00.850Z,86.44
2023-04-15T02:09:28.034Z,86.32
2023-04-15T02:11:54.984Z,85.28
2023-04-15T02:14:22.267Z,84.59
2023-04-15T02:16:49.446Z,85.15
2023-04-15T02:19:16.409Z,83.38
2023-04-15T02:21:43.294Z,84.31
2023-04-15T02:24:10.383Z,85.89
2023-04-15T02:26:37.178Z,85.80
2023-04-15T02:29:04.176Z,85.80
2023-04-15T02:31:34.210Z,84.98
2023-04-15T02:34:03.141Z,84.92
2023-04-15T02:36:31.756Z,86.37
2023-04-15T02:38:58.790Z,87.38
2023-04-15T02:41:28.589Z,86.45
2023-04-15T02:43:55.923Z,85.08
2023-04-15T02:46:23.237Z,84.95
2023-04-15T02:48:50.746Z,86.18
2023-04-15T02:51:20.295Z,86.13
2023-04-15T02:53:48.690Z,86.71
2023-04-15T02:56:17.117Z,87.12
2023-04-15T02:58:45.235Z,85.84
2023-04-15T03:01:12.467Z,85.06
2023-04-15T03:03:41.071Z,86.04
2023-04-15T03:06:09.068Z,85.05
2023-04-15T03:08:37.284Z,86.19
2023-04-15T03:11:04.800Z,86.02
2023-04-15T03:13:32.943Z,87.18
2023-04-15T03:16:04.884Z,87.76
2023-04-15T03:18:32.797Z,85.71
2023-04-15T03:21:02.900Z,87.32
2023-04-15T03:23:33.330Z,88.42
2023-04-15T03:26:02.868Z,88.50
2023-04-15T03:28:31.435Z,88.65
2023-04-15T03:30:59.631Z,88.40
2023-04-15T03:33:26.546Z,87.93
2023-04-15T03:35:53.683Z,88.02
2023-04-15T03:38:20.729Z,88.24
2023-04-15T03:40:47.700Z,86.84
2023-04-15T03:43:14.573Z,86.04
2023-04-15T03:45:41.415Z,87.46
2023-04-15T03:48:17.207Z,88.60
2023-04-15T03:50:44.864Z,87.18
2023-04-15T03:53:11.630Z,87.48
2023-04-15T03:55:38.478Z,87.86
2023-04-15T03:58:05.236Z,87.97
2023-04-15T04:00:32.202Z,88.02
2023-04-15T04:02:59.164Z,88.46
2023-04-15T04:05:26.416Z,87.36
2023-04-15T04:07:53.206Z,87.65
2023-04-15T04:10:20.223Z,87.46
2023-04-15T04:12:47.120Z,87.72
2023-04-15T04:15:13.950Z,87.09
2023-04-15T04:17:40.918Z,86.13
2023-04-15T04:20:08.467Z,85.07
2023-04-15T04:22:41.827Z,84.97
2023-04-15T04:25:10.306Z,87.04
2023-04-15T04:27:37.284Z,86.94
2023-04-15T04:30:05.778Z,88.04
2023-04-15T04:32:32.665Z,88.57
2023-04-15T04:34:59.511Z,88.30
2023-04-15T04:37:26.676Z,88.26
2023-04-15T04:39:53.555Z,87.94
2023-04-15T04:42:22.775Z,87.59
2023-04-15T04:44:50.081Z,84.85
2023-04-15T04:47:17.077Z,87.56
2023-04-15T04:49:43.944Z,88.92
2023-04-15T04:52:10.732Z,88.48
2023-04-15T04:54:37.704Z,85.87
2023-04-15T04:57:04.483Z,86.45
2023-04-15T04:59:31.698Z,86.86
2023-04-15T05:01:58.615Z,87.99
2023-04-15T05:04:26.302Z,85.07
2023-04-15T05:06:53.111Z,87.58
2023-04-15T05:09:20.190Z,86.80
2023-04-15T05:11:46.954Z,87.75
2023-04-15T05:14:13.776Z,86.88
2023-04-15T05:16:40.582Z,87.45
2023-04-15T05:19:07.949Z,86.81
2023-04-15T05:21:34.772Z,86.15
2023-04-15T05:24:01.631Z,87.20
2023-04-15T05:26:28.449Z,87.04
2023-04-15T05:28:55.315Z,86.39
2023-04-15T05:31:22.154Z,86.66
2023-04-15T05:33:49.139Z,85.74
2023-04-15T05:36:16.201Z,87.14
2023-04-15T05:38:43.099Z,87.42
2023-04-15T05:41:09.857Z,87.72
2023-04-15T05:43:36.713Z,87.07
2023-04-15T05:46:03.501Z,88.49
2023-04-15T05:48:30.702Z,86.35
2023-04-15T05:50:57.579Z,88.31
2023-04-15T05:53:24.447Z,86.01
2023-04-15T05:55:51.658Z,87.30
2023-04-15T05:58:18.457Z,88.38
2023-04-15T06:00:46.290Z,87.23
2023-04-15T06:03:13.400Z,87.95
2023-04-15T06:05:40.807Z,88.42
2023-04-15T06:08:08.459Z,85.89
2023-04-15T06:10:36.867Z,86.33
2023-04-15T06:13:04.405Z,88.68
2023-04-15T06:15:31.803Z,87.36
2023-04-15T06:17:58.796Z,85.83
2023-04-15T06:20:25.771Z,85.39
2023-04-15T06:22:52.902Z,87.69
2023-04-15T06:25:19.998Z,85.84
2023-04-15T06:27:46.779Z,85.41
2023-04-15T06:30:13.593Z,85.64
2023-04-15T06:32:40.710Z,86.08
2023-04-15T06:35:07.765Z,87.51
2023-04-15T06:37:34.608Z,86.43
2023-04-15T06:40:01.345Z,85.92
2023-04-15T06:42:28.271Z,86.55
2023-04-15T06:44:55.084Z,85.35
2023-04-15T06:47:21.896Z,84.63
2023-04-15T06:49:48.633Z,85.63
2023-04-15T06:52:16.793Z,86.23
2023-04-15T06:54:43.690Z,86.24
2023-04-15T06:57:10.578Z,84.98
2023-04-15T06:59:37.391Z,86.16
2023-04-15T07:02:04.987Z,84.37
2023-04-15T07:04:32.877Z,84.03
2023-04-15T07:07:02.647Z,84.11
2023-04-15T07:09:29.890Z,86.34
2023-04-15T07:11:56.690Z,86.75
2023-04-15T07:14:26.143Z,87.25
2023-04-15T07:16:53.002Z,86.66
2023-04-15T07:19:19.988Z,86.37
2023-04-15T07:21:47.729Z,85.64
2023-04-15T07:24:18.171Z,83.90
2023-04-15T07:26:46.234Z,83.31
2023-04-15T07:29:13.032Z,85.58
2023-04-15T07:31:40.840Z,86.07
2023-04-15T07:34:07.824Z,85.95
2023-04-15T07:36:35.456Z,83.79
2023-04-15T07:39:04.242Z,84.79
2023-04-15T07:41:31.701Z,85.29
2023-04-15T07:43:58.464Z,82.70
2023-04-15T07:46:27.448Z,85.60
2023-04-15T07:48:54.352Z,84.01
2023-04-15T07:51:21.338Z,84.83
2023-04-15T07:53:49.536Z,86.13
2023-04-15T07:56:16.426Z,84.37
2023-04-15T07:58:43.714Z,83.67
2023-04-15T08:01:10.560Z,83.54
2023-04-15T08:03:37.762Z,83.30
2023-04-15T08:06:05.736Z,83.33
2023-04-15T08:08:32.789Z,84.00
2023-04-15T08:10:59.745Z,82.90
2023-04-15T08:13:27.225Z,82.48
2023-04-15T08:16:23.539Z,82.00
2023-04-15T08:18:52.861Z,82.63
2023-04-15T08:21:20.214Z,81.29
2023-04-15T08:23:48.533Z,80.96
2023-04-15T08:26:15.343Z,81.33
2023-04-15T08:28:42.713Z,81.42
2023-04-15T08:31:09.804Z,81.59
2023-04-15T08:33:37.009Z,81.04
2023-04-15T08:36:04.585Z,80.20
2023-04-15T08:38:31.498Z,79.08
2023-04-15T08:40:59.008Z,79.42
2023-04-15T08:43:28.974Z,79.91
2023-04-15T08:45:56.003Z,80.20
2023-04-15T08:48:24.710Z,80.48
2023-04-15T08:50:51.697Z,80.04
2023-04-15T08:53:18.832Z,80.31
2023-04-15T08:55:47.037Z,80.23
2023-04-15T08:58:14.575Z,79.53
2023-04-15T09:00:42.723Z,78.31
2023-04-15T09:03:09.867Z,78.05
2023-04-15T09:05:37.500Z,78.54
2023-04-15T09:08:05.587Z,76.45
2023-04-15T09:10:34.350Z,76.61
2023-04-15T09:13:02.187Z,75.96
2023-04-15T09:15:29.992Z,75.09
2023-04-15T09:17:57.177Z,74.95
2023-04-15T09:20:24.265Z,74.02
2023-04-15T09:22:52.245Z,74.36
2023-04-15T09:25:22.035Z,74.99
2023-04-15T09:27:59.230Z,74.65
2023-04-15T09:30:26.626Z,73.45
2023-04-15T09:32:58.487Z,73.53
2023-04-15T09:35:27.668Z,72.16
2023-04-15T09:38:05.498Z,72.32
2023-04-15T09:40:33.073Z,71.30
2023-04-15T09:43:00.047Z,71.73
2023-04-15T09:45:29.558Z,71.98
2023-04-15T09:47:59.233Z,72.83
2023-04-15T09:50:32.198Z,72.28
2023-04-15T09:52:59.704Z,70.82
2023-04-15T09:55:26.656Z,72.19
2023-04-15T09:57:53.659Z,70.81
2023-04-15T10:00:20.474Z,71.56
2023-04-15T10:02:48.639Z,71.29
2023-04-15T10:05:17.958Z,71.49
2023-04-15T10:07:45.970Z,71.34
2023-04-15T10:10:13.632Z,72.82
2023-04-15T10:12:41.882Z,73.42
2023-04-15T10:15:14.903Z,73.39
2023-04-15T10:17:44.386Z,73.61
2023-04-15T10:20:13.095Z,72.60
2023-04-15T10:22:41.288Z,69.34
2023-04-15T10:25:08.548Z,69.50
2023-04-15T10:27:36.879Z,69.18
2023-04-15T10:30:04.175Z,69.41
2023-04-15T10:32:31.222Z,69.67
2023-04-15T10:34:58.252Z,69.88
2023-04-15T10:37:38.427Z,69.08
2023-04-15T10:40:31.772Z,67.15
2023-04-15T10:43:01.135Z,67.95
2023-04-15T10:45:29.166Z,67.78
2023-04-15T10:47:57.440Z,67.50
2023-04-15T10:50:28.855Z,68.13
2023-04-15T10:52:56.820Z,67.90
2023-04-15T10:55:26.028Z,67.76
2023-04-15T10:57:54.302Z,67.53
2023-04-15T11:00:24.915Z,67.51
2023-04-15T11:02:59.198Z,67.22
2023-04-15T11:05:41.779Z,67.09
2023-04-15T11:08:12.810Z,68.23
2023-04-15T11:10:39.538Z,67.40
2023-04-15T11:13:17.211Z,67.18
2023-04-15T11:15:45.429Z,67.60
2023-04-15T11:18:23.987Z,67.59
2023-04-15T11:20:50.863Z,66.89
2023-04-15T11:23:44.364Z,66.68
2023-04-15T11:26:12.590Z,66.22
2023-04-15T11:28:43.750Z,64.12
2023-04-15T11:31:13.527Z,65.53
2023-04-15T11:33:59.133Z,65.02
2023-04-15T11:36:30.246Z,66.81
2023-04-15T11:38:58.908Z,66.48
2023-04-15T11:41:25.904Z,66.47
2023-04-15T11:43:52.910Z,66.83
2023-04-15T11:46:19.806Z,65.97
2023-04-15T11:48:47.471Z,67.08
2023-04-15T11:51:14.592Z,65.96
2023-04-15T11:53:47.240Z,65.21
2023-04-15T11:56:19.187Z,64.67
2023-04-15T11:58:46.659Z,64.74
2023-04-15T12:01:14.096Z,64.77
2023-04-15T12:03:43.916Z,64.21
2023-04-15T12:06:27.901Z,64.55
2023-04-15T12:09:02.282Z,65.21
2023-04-15T12:11:51.510Z,61.43
2023-04-15T12:14:31.362Z,62.30
2023-04-15T12:17:06.009Z,62.61
2023-04-15T12:19:38.068Z,61.80
2023-04-15T12:22:10.228Z,61.59
2023-04-15T12:24:37.841Z,61.51
2023-04-15T12:27:08.493Z,60.67
2023-04-15T12:29:36.758Z,61.85
2023-04-15T12:32:17.645Z,61.70
2023-04-15T12:34:50.368Z,62.06
2023-04-15T12:37:17.788Z,60.47
2023-04-15T12:39:46.375Z,59.31
2023-04-15T12:42:13.209Z,59.60
2023-04-15T12:44:40.559Z,59.51
2023-04-15T12:47:08.417Z,56.78
2023-04-15T12:49:35.361Z,57.54
2023-04-15T12:52:02.891Z,55.91
2023-04-15T12:54:31.097Z,54.88
2023-04-15T12:56:58.560Z,52.47
2023-04-15T12:59:25.624Z,51.37
2023-04-15T13:01:53.557Z,50.53
2023-04-15T13:04:21.996Z,50.65
2023-04-15T13:06:49.054Z,50.63
2023-04-15T13:09:16.076Z,48.93
2023-04-15T13:11:43.419Z,49.03
2023-04-15T13:14:13.444Z,47.79
2023-04-15T13:16:40.917Z,47.94
2023-04-15T13:19:08.009Z,48.06
2023-04-15T13:21:36.166Z,45.78
2023-04-15T13:24:04.428Z,46.70
2023-04-15T13:26:32.207Z,44.60
2023-04-15T13:28:59.490Z,43.78
2023-04-15T13:31:26.458Z,44.57
2023-04-15T13:33:53.504Z,42.27
2023-04-15T13:36:20.703Z,42.60
2023-04-15T13:38:50.474Z,43.14
2023-04-15T13:41:18.216Z,41.63
2023-04-15T13:43:44.975Z,41.96
2023-04-15T13:46:12.506Z,40.03
2023-04-15T13:48:39.403Z,40.15
2023-04-15T13:51:06.464Z,41.94
2023-04-15T13:53:38.220Z,40.67
2023-04-15T13:56:10.393Z,40.48
2023-04-15T13:58:37.830Z,41.78
2023-04-15T14:01:07.023Z,41.72
2023-04-15T14:03:37.385Z,41.02
2023-04-15T14:06:05.770Z,39.87
2023-04-15T14:08:33.436Z,39.12
2023-04-15T14:11:00.677Z,39.78
2023-04-15T14:13:27.583Z,38.49
2023-04-15T14:15:54.425Z,39.64
2023-04-15T14:18:21.265Z,37.66
2023-04-15T14:20:48.023Z,38.04
2023-04-15T14:23:14.856Z,38.25
2023-04-15T14:25:41.779Z,36.93
2023-04-15T14:28:08.582Z,36.54
2023-04-15T14:30:35.811Z,36.68
2023-04-15T14:33:02.821Z,34.21
2023-04-15T14:35:29.840Z,35.43
2023-04-15T14:37:56.759Z,35.14
2023-04-15T14:40:23.856Z,35.88
2023-04-15T14:42:50.687Z,36.68
2023-04-15T14:45:17.994Z,35.00
2023-04-15T14:47:45.059Z,34.55
2023-04-15T14:50:12.165Z,35.67
2023-04-15T14:52:39.290Z,34.20
2023-04-15T14:55:07.546Z,36.82
2023-04-15T14:57:34.440Z,34.75
2023-04-15T15:00:01.337Z,35.54
2023-04-15T15:02:38.491Z,36.75
2023-04-15T15:05:06.869Z,35.65
2023-04-15T15:07:33.918Z,34.58
2023-04-15T15:10:00.918Z,34.07
2023-04-15T15:12:27.775Z,35.87
2023-04-15T15:14:56.006Z,35.36
2023-04-15T15:17:22.901Z,33.83
2023-04-15T15:19:49.820Z,35.40
2023-04-15T15:22:17.636Z,34.84
2023-04-15T15:24:45.882Z,36.58
2023-04-15T15:27:12.746Z,37.37
2023-04-15T15:29:39.773Z,36.17
2023-04-15T15:32:06.770Z,35.48
2023-04-15T15:34:33.535Z,33.88
2023-04-15T15:37:00.896Z,33.28
2023-04-15T15:39:27.856Z,33.30
2023-04-15T15:41:55.056Z,33.50
2023-04-15T15:44:21.896Z,35.30
2023-04-15T15:46:50.566Z,35.09
2023-04-15T15:49:17.477Z,34.25
2023-04-15T15:51:45.928Z,34.41
2023-04-15T15:54:13.100Z,34.60
2023-04-15T15:56:39.993Z,35.31
2023-04-15T15:59:07.003Z,35.39
2023-04-15T16:01:33.989Z,32.44
2023-04-15T16:04:01.300Z,35.08
2023-04-15T16:06:28.330Z,33.40
2023-04-15T16:08:55.214Z,35.17
2023-04-15T16:11:21.990Z,34.73
2023-04-15T16:13:48.798Z,35.44
2023-04-15T16:16:15.713Z,35.06
2023-04-15T16:18:42.532Z,33.81
2023-04-15T16:21:09.372Z,33.81
2023-04-15T16:23:37.242Z,33.57
2023-04-15T16:26:04.081Z,35.16
2023-04-15T16:28:30.830Z,34.08
2023-04-15T16:30:57.675Z,36.04
2023-04-15T16:33:24.504Z,32.57
2023-04-15T16:35:51.820Z,32.57
2023-04-15T16:38:18.631Z,32.59
2023-04-15T16:40:45.795Z,33.65
2023-04-15T16:43:12.582Z,33.52
2023-04-15T16:45:39.451Z,32.72
2023-04-15T16:48:06.488Z,34.31
2023-04-15T16:50:33.275Z,36.37
2023-04-15T16:53:00.082Z,36.34
2023-04-15T16:55:27.110Z,37.69
2023-04-15T16:58:02.742Z,38.04
2023-04-15T17:00:31.515Z,37.37
2023-04-15T17:02:59.349Z,37.12
2023-04-15T17:05:29.399Z,36.75
2023-04-15T17:07:56.299Z,38.44
2023-04-15T17:10:23.495Z,39.15
2023-04-15T17:12:52.242Z,39.99
2023-04-15T17:15:19.956Z,40.95
2023-04-15T17:17:46.865Z,43.47
2023-04-15T17:20:13.834Z,45.96
2023-04-15T17:22:40.748Z,47.39
2023-04-15T17:25:08.067Z,48.26
2023-04-15T17:27:34.904Z,49.42
2023-04-15T17:30:02.112Z,50.59
2023-04-15T17:32:32.037Z,51.79
2023-04-15T17:34:58.935Z,53.73
2023-04-15T17:37:25.830Z,55.42
2023-04-15T17:39:52.892Z,56.81
2023-04-15T17:42:19.732Z,56.01
2023-04-15T17:44:46.486Z,58.11
2023-04-15T17:47:13.242Z,57.26
2023-04-15T17:49:40.106Z,57.84
2023-04-15T17:52:06.837Z,58.54
2023-04-15T17:54:33.747Z,59.50
2023-04-15T17:57:01.453Z,59.23
2023-04-15T17:59:28.309Z,59.26
2023-04-15T18:01:55.542Z,59.16
2023-04-15T18:04:25.833Z,57.98
2023-04-15T18:06:53.356Z,59.68
2023-04-15T18:09:20.352Z,61.32
2023-04-15T18:11:48.469Z,61.16
2023-04-15T18:14:26.665Z,61.05
2023-04-15T18:16:57.923Z,58.55
2023-04-15T18:19:25.853Z,60.51
2023-04-15T18:21:52.766Z,61.96
2023-04-15T18:24:19.631Z,60.79
2023-04-15T18:26:48.361Z,59.88
2023-04-15T18:29:15.877Z,62.71
2023-04-15T18:31:42.851Z,62.52
2023-04-15T18:34:09.773Z,62.73
2023-04-15T18:36:36.620Z,62.66
2023-04-15T18:39:04.453Z,63.02
2023-04-15T18:41:31.465Z,64.22
2023-04-15T18:43:58.331Z,64.41
2023-04-15T18:46:25.149Z,66.55
2023-04-15T18:48:52.026Z,66.25
2023-04-15T18:51:18.913Z,66.24
2023-04-15T18:53:45.749Z,64.24
2023-04-15T18:56:12.535Z,66.43
2023-04-15T18:59:27.855Z,65.54
2023-04-15T19:01:26.577Z,67.38
2023-04-15T19:03:53.506Z,68.78
2023-04-15T19:06:20.564Z,67.93
2023-04-15T19:08:47.413Z,68.00
2023-04-15T19:11:14.292Z,69.13
2023-04-15T19:13:41.156Z,69.35
2023-04-15T19:16:07.969Z,69.05
2023-04-15T19:18:34.877Z,69.86
2023-04-15T19:21:01.826Z,69.97
2023-04-15T19:23:28.782Z,70.16
2023-04-15T19:25:57.201Z,69.48
2023-04-15T19:28:24.016Z,68.25
2023-04-15T19:30:52.442Z,68.98
2023-04-15T19:33:19.240Z,69.52
2023-04-15T19:35:46.740Z,70.65
2023-04-15T19:38:13.515Z,71.19
2023-04-15T19:40:40.348Z,69.82
2023-04-15T19:43:07.154Z,70.26
2023-04-15T19:45:34.324Z,70.91
2023-04-15T19:48:01.188Z,73.02
2023-04-15T19:50:28.375Z,71.53
2023-04-15T19:52:55.267Z,72.10
2023-04-15T19:55:22.024Z,71.60
2023-04-15T19:57:48.813Z,71.69
2023-04-15T20:00:15.808Z,71.98
2023-04-15T20:02:42.696Z,72.63
2023-04-15T20:05:10.186Z,73.49
2023-04-15T20:07:37.001Z,72.63
2023-04-15T20:10:10.723Z,71.05
2023-04-15T20:12:50.362Z,73.61
2023-04-15T20:15:20.832Z,72.24
2023-04-15T20:17:47.670Z,72.92
2023-04-15T20:20:14.596Z,73.17
2023-04-15T20:22:41.592Z,73.34
2023-04-15T20:25:08.921Z,73.75
2023-04-15T20:27:35.868Z,74.41
2023-04-15T20:30:04.826Z,73.46
2023-04-15T20:32:35.898Z,73.66
2023-04-15T20:35:04.384Z,74.32
2023-04-15T20:37:33.569Z,74.42
2023-04-15T20:40:00.861Z,74.55
2023-04-15T20:42:27.670Z,74.74
2023-04-15T20:44:54.554Z,73.09
2023-04-15T20:47:21.614Z,72.84
2023-04-15T20:49:48.605Z,74.65
2023-04-15T20:52:15.417Z,75.67
2023-04-15T20:54:42.283Z,74.86
2023-04-15T20:57:09.499Z,75.50
2023-04-15T20:59:36.368Z,75.29
2023-04-15T21:02:03.317Z,76.29
2023-04-15T21:04:30.237Z,75.07
2023-04-15T21:06:57.021Z,75.92
2023-04-15T21:09:24.932Z,76.21
2023-04-15T21:14:21.526Z,75.94
2023-04-15T21:16:48.351Z,75.69
2023-04-15T21:19:15.084Z,76.43
2023-04-15T21:21:41.924Z,76.17
2023-04-15T21:24:08.854Z,76.27
2023-04-15T21:26:38.734Z,75.11
2023-04-15T21:29:07.148Z,76.22
2023-04-15T21:31:35.742Z,75.36
2023-04-15T21:34:02.532Z,74.65
2023-04-15T21:36:29.465Z,75.65
2023-04-15T21:38:56.308Z,76.60
2023-04-15T21:41:23.142Z,75.68
2023-04-15T21:43:50.180Z,76.07
2023-04-15T21:46:23.006Z,76.08
2023-04-15T21:48:55.150Z,74.91
2023-04-15T21:51:22.017Z,74.55
2023-04-15T21:53:48.873Z,75.21
2023-04-15T21:56:15.966Z,74.83
2023-04-15T21:58:43.054Z,76.22
2023-04-15T22:01:09.900Z,75.99
2023-04-15T22:03:37.021Z,76.72
2023-04-15T22:06:04.279Z,76.68
2023-04-15T22:08:44.555Z,76.97
2023-04-15T22:11:30.552Z,77.49
2023-04-15T22:13:58.617Z,75.73
2023-04-15T22:16:28.692Z,75.77
2023-04-15T22:18:56.226Z,77.72
2023-04-15T22:21:23.404Z,77.12
2023-04-15T22:23:51.161Z,76.07
2023-04-15T22:26:17.958Z,78.24
2023-04-15T22:28:45.373Z,77.93
2023-04-15T22:31:12.147Z,77.13
2023-04-15T22:33:39.149Z,78.15
2023-04-15T22:36:06.331Z,77.46
2023-04-15T22:38:33.343Z,77.94
2023-04-15T22:41:00.169Z,76.50
2023-04-15T22:43:27.709Z,78.01
2023-04-15T22:45:55.133Z,79.22
2023-04-15T22:48:22.522Z,76.33
2023-04-15T22:50:49.504Z,77.91
2023-04-15T22:53:17.595Z,78.03
2023-04-15T22:55:46.660Z,79.99
2023-04-15T22:58:14.111Z,76.77
2023-04-15T23:00:41.193Z,77.70
2023-04-15T23:03:08.385Z,79.51
2023-04-15T23:05:35.341Z,80.32
2023-04-15T23:08:02.146Z,80.48
2023-04-15T23:10:29.572Z,79.00
2023-04-15T23:12:56.472Z,80.62
2023-04-15T23:15:23.483Z,80.84
2023-04-15T23:17:50.484Z,79.43
2023-04-15T23:20:17.362Z,80.81
2023-04-15T23:22:44.433Z,80.51
2023-04-15T23:25:11.267Z,80.37
2023-04-15T23:27:38.637Z,80.27
2023-04-15T23:30:06.325Z,80.72
2023-04-15T23:32:33.215Z,80.40
2023-04-15T23:35:00.043Z,81.07
2023-04-15T23:37:26.874Z,81.83
2023-04-15T23:39:55.805Z,80.24
2023-04-15T23:42:24.200Z,81.17
2023-04-15T23:44:51.182Z,79.79
2023-04-15T23:47:18.103Z,80.60
2023-04-15T23:49:44.897Z,80.98
2023-04-15T23:52:11.879Z,80.95
2023-04-15T23:54:38.725Z,81.25
2023-04-15T23:57:05.650Z,81.61
2023-04-15T23:59:32.369Z,80.92
